createdAt,value
2019-03-11T00:05:48.444Z,4.70
2019-03-11T00:08:36.199Z,4.70
2019-03-11T00:11:24.132Z,4.90
2019-03-11T00:14:11.892Z,4.80
2019-03-11T00:16:59.648Z,4.60
2019-03-11T00:19:47.415Z,4.70
2019-03-11T00:22:28.407Z,4.70
2019-03-11T00:25:08.965Z,4.60
2019-03-11T00:27:49.479Z,4.70
2019-03-11T00:30:30.429Z,4.80
2019-03-11T00:33:10.997Z,4.70
2019-03-11T00:35:51.710Z,4.70
2019-03-11T00:38:32.249Z,4.70
2019-03-11T00:41:13.081Z,4.60
2019-03-11T00:43:53.820Z,4.60
2019-03-11T00:46:22.264Z,4.60
2019-03-11T00:48:50.706Z,4.60
2019-03-11T00:51:57.648Z,4.60
2019-03-11T00:57:39.213Z,4.60
2019-03-11T01:00:47.687Z,4.60
2019-03-11T01:03:35.533Z,4.60
2019-03-11T01:06:23.303Z,4.60
2019-03-11T01:09:11.048Z,4.80
2019-03-11T01:11:39.537Z,4.60
2019-03-11T01:14:07.952Z,4.50
2019-03-11T01:16:55.740Z,4.50
2019-03-11T01:19:43.513Z,4.50
2019-03-11T01:22:31.277Z,4.50
2019-03-11T01:25:11.880Z,4.40
2019-03-11T01:27:52.461Z,4.50
2019-03-11T01:30:33.385Z,4.50
2019-03-11T01:33:14.308Z,4.40
2019-03-11T01:35:55.192Z,4.40
2019-03-11T01:38:36.094Z,4.40
2019-03-11T01:41:17.001Z,4.40
2019-03-11T01:43:57.601Z,4.40
2019-03-11T01:46:38.067Z,4.30
2019-03-11T01:49:18.656Z,4.30
2019-03-11T01:51:59.520Z,4.30
2019-03-11T01:54:40.612Z,4.50
2019-03-11T01:57:21.172Z,4.30
2019-03-11T01:59:49.619Z,4.30
2019-03-11T02:02:37.368Z,4.20
2019-03-11T02:05:25.129Z,4.20
2019-03-11T02:08:13.129Z,4.10
2019-03-11T02:10:41.552Z,4.20
2019-03-11T02:13:30.101Z,4.10
2019-03-11T02:16:17.866Z,4.10
2019-03-11T02:19:05.624Z,4.00
2019-03-11T02:21:53.450Z,4.00
2019-03-11T02:24:22.001Z,4.00
2019-03-11T02:27:02.804Z,4.00
2019-03-11T02:32:36.221Z,4.00
2019-03-11T02:35:17.402Z,3.90
2019-03-11T02:37:58.269Z,3.90
2019-03-11T02:40:39.039Z,3.90
2019-03-11T02:43:19.382Z,3.90
2019-03-11T02:46:00.194Z,3.80
2019-03-11T02:48:40.729Z,3.90
2019-03-11T02:51:21.616Z,3.90
2019-03-11T02:54:02.013Z,3.80
2019-03-11T02:56:42.796Z,3.80
2019-03-11T02:59:25.230Z,3.90
2019-03-11T03:02:25.366Z,3.80
2019-03-11T03:05:25.275Z,3.80
2019-03-11T03:08:05.979Z,3.80
2019-03-11T03:10:46.819Z,3.90
2019-03-11T03:13:27.748Z,3.70
2019-03-11T03:16:08.532Z,3.70
2019-03-11T03:18:49.105Z,3.70
2019-03-11T03:21:31.403Z,3.60
2019-03-11T03:24:12.210Z,3.50
2019-03-11T03:26:53.097Z,3.60
2019-03-11T03:29:33.918Z,3.50
2019-03-11T03:32:15.079Z,3.50
2019-03-11T03:34:56.098Z,3.50
2019-03-11T03:37:36.917Z,3.50
2019-03-11T03:40:17.692Z,3.40
2019-03-11T03:42:58.740Z,3.50
2019-03-11T03:45:42.719Z,3.50
2019-03-11T03:48:23.224Z,3.50
2019-03-11T03:51:04.134Z,3.50
2019-03-11T03:53:46.624Z,3.50
2019-03-11T03:59:15.904Z,3.50
2019-03-11T04:01:56.440Z,3.60
2019-03-11T04:04:37.362Z,3.60
2019-03-11T04:07:20.218Z,3.60
2019-03-11T04:10:01.170Z,3.60
2019-03-11T04:12:42.025Z,3.60
2019-03-11T04:15:24.329Z,3.60
2019-03-11T04:18:04.706Z,3.60
2019-03-11T04:20:45.410Z,3.70
2019-03-11T04:23:35.697Z,3.70
2019-03-11T04:26:16.664Z,3.90
2019-03-11T04:28:57.218Z,3.80
2019-03-11T04:31:38.184Z,4.00
2019-03-11T04:34:18.668Z,3.80
2019-03-11T04:36:59.668Z,4.20
2019-03-11T04:39:40.568Z,4.20
2019-03-11T04:42:21.495Z,3.90
2019-03-11T04:45:02.274Z,3.90
2019-03-11T04:47:42.876Z,3.90
2019-03-11T04:50:23.953Z,3.90
2019-03-11T04:53:04.877Z,3.90
2019-03-11T04:55:48.207Z,4.00
2019-03-11T04:58:29.105Z,4.30
2019-03-11T05:01:11.469Z,4.00
2019-03-11T05:03:52.639Z,4.00
2019-03-11T05:06:33.429Z,4.40
2019-03-11T05:09:14.354Z,4.10
2019-03-11T05:11:55.364Z,4.10
2019-03-11T05:14:39.356Z,4.10
2019-03-11T05:17:20.547Z,4.20
2019-03-11T05:20:01.653Z,4.30
2019-03-11T05:22:42.346Z,4.10
2019-03-11T05:25:25.037Z,4.20
2019-03-11T05:28:06.211Z,4.20
2019-03-11T05:30:46.943Z,4.20
2019-03-11T05:33:27.752Z,4.20
2019-03-11T05:36:08.720Z,4.20
2019-03-11T05:38:49.444Z,4.30
2019-03-11T05:41:30.136Z,4.30
2019-03-11T05:44:11.082Z,4.30
2019-03-11T05:46:51.876Z,4.30
2019-03-11T05:49:32.878Z,4.30
2019-03-11T05:52:13.142Z,4.60
2019-03-11T05:54:53.722Z,4.40
2019-03-11T05:57:34.457Z,4.40
2019-03-11T06:00:16.203Z,4.40
2019-03-11T06:02:57.207Z,4.40
2019-03-11T06:05:37.860Z,4.50
2019-03-11T06:14:07.211Z,4.60
2019-03-11T06:16:47.845Z,5.10
2019-03-11T06:19:28.673Z,4.60
2019-03-11T06:22:09.931Z,4.60
2019-03-11T06:24:50.989Z,4.70
2019-03-11T06:27:31.545Z,4.70
2019-03-11T06:30:12.653Z,5.00
2019-03-11T06:32:53.543Z,4.80
2019-03-11T06:35:36.926Z,4.90
2019-03-11T06:38:18.128Z,4.90
2019-03-11T06:40:58.989Z,5.20
2019-03-11T06:43:40.287Z,4.90
2019-03-11T06:46:21.158Z,4.90
2019-03-11T06:49:01.732Z,4.90
2019-03-11T06:51:42.639Z,4.90
2019-03-11T06:54:23.046Z,4.90
2019-03-11T06:57:03.683Z,4.80
2019-03-11T06:59:44.370Z,4.80
2019-03-11T07:02:24.848Z,4.80
2019-03-11T07:05:05.643Z,4.80
2019-03-11T07:07:46.134Z,4.80
2019-03-11T07:10:26.710Z,4.70
2019-03-11T07:13:07.475Z,4.50
2019-03-11T07:15:48.242Z,3.80
2019-03-11T07:18:28.980Z,3.10
2019-03-11T07:21:09.677Z,2.40
2019-03-11T07:23:50.304Z,1.90
2019-03-11T07:26:31.405Z,1.70
2019-03-11T07:29:12.303Z,1.70
2019-03-11T07:31:53.350Z,1.10
2019-03-11T07:34:34.152Z,0.90
2019-03-11T07:37:14.942Z,0.60
2019-03-11T07:39:55.670Z,0.50
2019-03-11T07:42:36.325Z,0.30
2019-03-11T07:45:16.900Z,0.10
2019-03-11T07:47:59.540Z,0.10
2019-03-11T07:50:40.671Z,0.30
2019-03-11T07:53:29.114Z,0.20
2019-03-11T07:56:10.176Z,0.10
2019-03-11T07:58:51.136Z,0.10
2019-03-11T08:01:31.464Z,0.00
2019-03-11T08:04:12.460Z,0.00
2019-03-11T08:06:53.082Z,0.20
2019-03-11T08:09:38.239Z,0.00
2019-03-11T08:12:14.491Z,0.00
2019-03-11T08:15:02.243Z,0.00
2019-03-11T08:17:49.991Z,-0.10
2019-03-11T08:20:37.746Z,-0.10
2019-03-11T08:23:25.496Z,-0.10
2019-03-11T08:26:13.251Z,-0.10
2019-03-11T08:29:00.999Z,0.00
2019-03-11T08:31:48.789Z,0.00
2019-03-11T08:34:36.536Z,-0.10
2019-03-11T08:37:24.412Z,-0.10
2019-03-11T08:40:13.608Z,-0.20
2019-03-11T08:43:01.448Z,-0.10
2019-03-11T08:45:51.913Z,-0.10
2019-03-11T08:48:39.668Z,0.00
2019-03-11T09:00:00.614Z,0.10
2019-03-11T09:05:30.777Z,0.10
2019-03-11T09:16:42.728Z,0.30
2019-03-11T09:19:26.624Z,0.40
2019-03-11T09:22:07.577Z,0.80
2019-03-11T09:24:36.005Z,0.60
2019-03-11T09:27:23.749Z,0.60
2019-03-11T09:30:46.419Z,0.60
2019-03-11T09:33:21.790Z,0.60
2019-03-11T09:36:09.560Z,0.70
2019-03-11T09:38:57.304Z,0.70
2019-03-11T09:41:45.074Z,0.70
2019-03-11T09:44:40.088Z,0.80
2019-03-11T09:50:15.560Z,0.90
2019-03-11T09:53:03.439Z,1.10
2019-03-11T09:55:31.848Z,1.10
2019-03-11T09:58:19.615Z,1.10
2019-03-11T10:01:00.699Z,1.40
2019-03-11T10:03:41.766Z,1.40
2019-03-11T10:06:22.433Z,1.10
2019-03-11T10:09:04.560Z,0.80
2019-03-11T10:11:45.040Z,0.50
2019-03-11T10:14:25.542Z,0.30
2019-03-11T10:17:06.590Z,0.60
2019-03-11T10:19:47.345Z,0.30
2019-03-11T10:22:28.133Z,0.30
2019-03-11T10:25:09.307Z,0.20
2019-03-11T10:27:50.347Z,0.40
2019-03-11T10:30:30.948Z,0.30
2019-03-11T10:33:11.891Z,0.30
2019-03-11T10:35:50.640Z,0.50
2019-03-11T10:38:38.393Z,0.30
2019-03-11T10:41:26.141Z,0.30
2019-03-11T10:44:13.909Z,0.40
2019-03-11T10:47:01.653Z,0.40
2019-03-11T10:49:30.062Z,0.50
2019-03-11T10:52:17.820Z,0.50
2019-03-11T10:55:26.298Z,0.90
2019-03-11T10:58:14.044Z,0.50
2019-03-11T11:00:54.650Z,0.60
2019-03-11T11:03:35.124Z,0.90
2019-03-11T11:06:17.263Z,0.60
2019-03-11T11:08:58.473Z,0.70
2019-03-11T11:11:39.224Z,1.20
2019-03-11T11:14:19.584Z,1.10
2019-03-11T11:16:59.953Z,1.50
2019-03-11T11:19:40.314Z,1.60
2019-03-11T11:22:21.296Z,1.90
2019-03-11T11:25:01.813Z,2.00
2019-03-11T11:27:42.696Z,2.10
2019-03-11T11:30:23.397Z,2.00
2019-03-11T11:33:04.276Z,2.10
2019-03-11T11:35:44.919Z,2.20
2019-03-11T11:38:25.818Z,2.30
2019-03-11T11:41:06.259Z,2.30
2019-03-11T11:43:47.296Z,2.50
2019-03-11T11:46:27.973Z,2.60
2019-03-11T11:49:08.702Z,2.70
2019-03-11T11:51:49.388Z,2.70
2019-03-11T11:54:30.229Z,2.90
2019-03-11T11:57:11.024Z,3.10
2019-03-11T12:02:25.576Z,3.40
2019-03-11T12:04:53.980Z,3.40
2019-03-11T12:07:41.745Z,3.40
2019-03-11T12:10:48.824Z,3.30
2019-03-11T12:13:17.274Z,3.40
2019-03-11T12:15:45.680Z,3.50
2019-03-11T12:18:14.092Z,3.70
2019-03-11T12:21:01.864Z,3.60
2019-03-11T12:23:49.615Z,3.50
2019-03-11T12:26:37.465Z,3.50
2019-03-11T12:29:27.882Z,3.40
2019-03-11T12:32:14.760Z,3.30
2019-03-11T12:35:02.613Z,3.30
2019-03-11T12:37:50.449Z,3.40
2019-03-11T12:40:38.208Z,3.70
2019-03-11T12:43:25.976Z,4.00
2019-03-11T12:45:54.398Z,3.90
2019-03-11T12:48:42.154Z,4.00
2019-03-11T12:51:29.900Z,4.20
2019-03-11T12:54:17.650Z,4.30
2019-03-11T12:57:24.588Z,4.30
2019-03-11T12:59:53.013Z,4.30
2019-03-11T13:02:33.436Z,4.30
2019-03-11T13:05:14.501Z,4.30
2019-03-11T13:07:55.318Z,4.60
2019-03-11T13:10:36.072Z,4.60
2019-03-11T13:13:19.032Z,4.40
2019-03-11T13:15:59.716Z,4.40
2019-03-11T13:18:40.251Z,4.40
2019-03-11T13:21:20.911Z,4.60
2019-03-11T13:24:04.148Z,4.60
2019-03-11T13:26:44.727Z,4.70
2019-03-11T13:29:25.537Z,4.80
2019-03-11T13:32:06.025Z,4.80
2019-03-11T13:34:47.959Z,4.60
2019-03-11T13:37:28.420Z,4.70
2019-03-11T13:40:09.420Z,4.80
2019-03-11T13:42:50.350Z,5.00
2019-03-11T13:45:31.320Z,4.80
2019-03-11T13:48:11.892Z,4.60
2019-03-11T13:50:54.008Z,4.50
2019-03-11T13:53:32.740Z,4.30
2019-03-11T13:56:20.563Z,4.20
2019-03-11T13:59:08.324Z,4.00
2019-03-11T14:02:07.848Z,3.90
2019-03-11T14:04:38.564Z,3.70
2019-03-11T14:07:19.616Z,3.70
2019-03-11T14:10:00.514Z,3.90
2019-03-11T14:12:43.531Z,3.60
2019-03-11T14:15:24.058Z,3.50
2019-03-11T14:18:04.668Z,3.40
2019-03-11T14:20:45.312Z,3.30
2019-03-11T14:23:26.012Z,3.10
2019-03-11T14:26:06.829Z,3.10
2019-03-11T14:28:47.572Z,3.10
2019-03-11T14:31:28.697Z,3.40
2019-03-11T14:34:09.912Z,3.20
2019-03-11T14:36:51.055Z,3.30
2019-03-11T14:39:31.976Z,3.40
2019-03-11T14:42:32.257Z,3.40
2019-03-11T14:50:47.402Z,3.50
2019-03-11T14:59:27.081Z,3.70
2019-03-11T15:02:11.371Z,3.40
2019-03-11T15:04:55.545Z,3.70
2019-03-11T15:07:36.750Z,3.40
2019-03-11T15:10:18.552Z,3.40
2019-03-11T15:13:01.150Z,3.40
2019-03-11T15:15:43.777Z,3.70
2019-03-11T15:18:24.818Z,3.60
2019-03-11T15:21:05.926Z,3.70
2019-03-11T15:23:46.881Z,3.60
2019-03-11T15:26:30.564Z,3.50
2019-03-11T15:29:11.198Z,3.40
2019-03-11T15:31:54.494Z,3.30
2019-03-11T15:34:35.327Z,3.10
2019-03-11T15:37:16.214Z,2.90
2019-03-11T15:39:57.038Z,2.80
2019-03-11T15:42:37.858Z,2.60
2019-03-11T15:45:18.721Z,2.40
2019-03-11T15:47:59.497Z,2.20
2019-03-11T15:50:40.201Z,2.00
2019-03-11T15:53:20.926Z,1.80
2019-03-11T15:56:01.831Z,1.60
2019-03-11T15:58:42.425Z,1.40
2019-03-11T16:01:23.410Z,1.40
2019-03-11T16:04:07.073Z,1.30
2019-03-11T16:06:49.051Z,1.10
2019-03-11T16:09:30.053Z,1.10
2019-03-11T16:12:10.633Z,1.20
2019-03-11T16:14:51.515Z,1.10
2019-03-11T16:17:32.326Z,1.20
2019-03-11T16:20:13.479Z,1.30
2019-03-11T16:22:54.221Z,1.30
2019-03-11T16:25:35.167Z,1.40
2019-03-11T16:28:15.899Z,1.40
2019-03-11T16:30:56.341Z,1.30
2019-03-11T16:33:37.235Z,1.10
2019-03-11T16:36:20.044Z,0.90
2019-03-11T16:39:00.637Z,0.90
2019-03-11T16:41:41.936Z,0.90
2019-03-11T16:44:22.590Z,0.80
2019-03-11T16:47:06.426Z,0.90
2019-03-11T16:49:47.405Z,0.90
2019-03-11T16:52:28.200Z,1.00
2019-03-11T16:55:09.209Z,0.90
2019-03-11T16:57:53.307Z,0.90
2019-03-11T17:00:37.884Z,1.00
2019-03-11T17:03:18.831Z,0.80
2019-03-11T17:05:59.704Z,0.70
2019-03-11T17:08:28.188Z,0.80
2019-03-11T17:11:15.932Z,0.80
2019-03-11T17:14:03.689Z,0.70
2019-03-11T17:16:51.450Z,0.70
2019-03-11T17:19:39.192Z,0.80
2019-03-11T17:22:26.944Z,0.80
2019-03-11T17:25:14.968Z,1.20
2019-03-11T17:28:02.719Z,1.00
2019-03-11T17:30:50.536Z,1.10
2019-03-11T17:33:38.283Z,1.20
2019-03-11T17:36:26.037Z,1.20
2019-03-11T17:39:13.999Z,0.90
2019-03-11T17:42:01.788Z,0.80
2019-03-11T17:44:49.540Z,0.80
2019-03-11T17:47:37.280Z,1.10
2019-03-11T17:50:25.032Z,0.80
2019-03-11T17:53:19.751Z,0.80
2019-03-11T17:56:02.255Z,0.70
2019-03-11T17:58:50.140Z,0.70
2019-03-11T18:01:37.884Z,0.70
2019-03-11T18:04:25.643Z,0.70
2019-03-11T18:07:06.083Z,0.80
2019-03-11T18:09:46.961Z,0.80
2019-03-11T18:12:27.580Z,0.80
2019-03-11T18:17:50.513Z,0.90
2019-03-11T18:20:31.471Z,0.80
2019-03-11T18:23:12.100Z,0.70
2019-03-11T18:25:52.888Z,0.60
2019-03-11T18:28:33.593Z,0.80
2019-03-11T18:31:14.580Z,0.80
2019-03-11T18:33:55.286Z,0.60
2019-03-11T18:36:36.052Z,0.60
2019-03-11T18:39:19.178Z,0.60
2019-03-11T18:41:59.329Z,0.60
2019-03-11T18:44:40.240Z,0.60
2019-03-11T18:47:21.322Z,0.60
2019-03-11T18:50:01.988Z,0.50
2019-03-11T18:52:42.847Z,0.60
2019-03-11T18:55:23.657Z,0.60
2019-03-11T18:58:04.162Z,0.90
2019-03-11T19:00:44.553Z,0.60
2019-03-11T19:03:25.092Z,0.60
2019-03-11T19:06:05.896Z,0.50
2019-03-11T19:08:46.492Z,0.60
2019-03-11T19:11:27.210Z,0.60
2019-03-11T19:14:07.717Z,1.00
2019-03-11T19:16:48.390Z,1.00
2019-03-11T19:19:29.333Z,0.60
2019-03-11T19:22:08.070Z,0.60
2019-03-11T19:24:55.807Z,0.60
2019-03-11T19:27:43.633Z,0.60
2019-03-11T19:30:31.380Z,0.60
2019-03-11T19:33:19.161Z,0.60
2019-03-11T19:36:07.023Z,0.60
2019-03-11T19:38:47.999Z,0.60
2019-03-11T19:41:28.787Z,0.60
2019-03-11T19:44:09.752Z,0.60
2019-03-11T19:46:50.604Z,0.60
2019-03-11T19:49:31.978Z,0.90
2019-03-11T19:52:12.233Z,0.50
2019-03-11T19:54:52.912Z,0.60
2019-03-11T19:57:33.946Z,0.50
2019-03-11T20:00:14.582Z,0.90
2019-03-11T20:02:55.625Z,0.60
2019-03-11T20:05:36.769Z,0.50
2019-03-11T20:08:17.479Z,0.50
2019-03-11T20:10:58.220Z,0.50
2019-03-11T20:13:39.174Z,0.50
2019-03-11T20:16:19.566Z,0.50
2019-03-11T20:19:00.679Z,0.50
2019-03-11T20:21:41.857Z,0.50
2019-03-11T20:24:22.634Z,0.40
2019-03-11T20:27:02.956Z,0.90
2019-03-11T20:29:43.454Z,0.50
2019-03-11T20:32:12.017Z,0.50
2019-03-11T20:34:40.491Z,0.50
2019-03-11T20:37:09.045Z,0.50
2019-03-11T20:39:37.455Z,0.50
2019-03-11T20:42:05.895Z,0.40
2019-03-11T20:44:34.388Z,0.50
2019-03-11T20:47:02.894Z,0.50
2019-03-11T20:49:31.377Z,0.50
2019-03-11T20:51:59.819Z,0.50
2019-03-11T20:54:30.791Z,0.50
2019-03-11T20:57:00.833Z,0.50
2019-03-11T20:59:28.480Z,0.60
2019-03-11T21:01:56.965Z,0.60
2019-03-11T21:04:25.407Z,0.60
2019-03-11T21:06:53.991Z,0.60
2019-03-11T21:09:22.423Z,0.60
2019-03-11T21:11:50.905Z,0.70
2019-03-11T21:14:19.351Z,0.70
2019-03-11T21:16:47.767Z,0.70
2019-03-11T21:19:16.221Z,0.70
2019-03-11T21:21:44.728Z,0.70
2019-03-11T21:24:13.982Z,0.70
2019-03-11T21:26:42.636Z,0.70
2019-03-11T21:29:11.040Z,0.70
2019-03-11T21:31:39.559Z,0.70
2019-03-11T21:34:09.796Z,0.70
2019-03-11T21:36:38.159Z,0.70
2019-03-11T21:39:06.896Z,0.70
2019-03-11T21:41:35.484Z,0.70
2019-03-11T21:44:03.941Z,0.70
2019-03-11T21:46:32.445Z,0.80
2019-03-11T21:49:00.876Z,0.70
2019-03-11T21:51:29.310Z,0.70
2019-03-11T21:53:57.766Z,0.80
2019-03-11T21:56:26.208Z,0.80
2019-03-11T21:58:54.823Z,0.80
2019-03-11T22:01:23.244Z,0.80
2019-03-11T22:03:52.612Z,0.80
2019-03-11T22:06:21.021Z,0.90
2019-03-11T22:08:49.421Z,1.00
2019-03-11T22:11:17.845Z,1.00
2019-03-11T22:13:46.255Z,1.10
2019-03-11T22:16:14.664Z,1.10
2019-03-11T22:18:43.073Z,1.10
2019-03-11T22:21:11.487Z,1.10
2019-03-11T22:23:42.178Z,1.20
2019-03-11T22:26:10.059Z,1.20
2019-03-11T22:28:38.475Z,1.30
2019-03-11T22:31:07.016Z,1.30
2019-03-11T22:33:35.422Z,1.40
2019-03-11T22:36:03.904Z,1.40
2019-03-11T22:38:32.291Z,1.50
2019-03-11T22:41:00.687Z,1.50
2019-03-11T22:43:29.135Z,1.60
2019-03-11T22:45:57.547Z,1.60
2019-03-11T22:48:25.991Z,1.70
2019-03-11T22:50:54.439Z,1.70
2019-03-11T22:53:22.848Z,1.70
2019-03-11T22:55:51.265Z,1.80
2019-03-11T22:58:19.983Z,1.80
2019-03-11T23:00:56.141Z,1.80
2019-03-11T23:03:25.410Z,1.80
2019-03-11T23:05:58.223Z,1.80
2019-03-11T23:08:24.148Z,1.80
2019-03-11T23:10:52.620Z,1.80
2019-03-11T23:13:21.333Z,1.80
2019-03-11T23:15:49.804Z,1.90
2019-03-11T23:18:18.203Z,1.80
2019-03-11T23:20:46.607Z,1.80
2019-03-11T23:23:15.016Z,1.80
2019-03-11T23:25:43.424Z,1.80
2019-03-11T23:28:11.824Z,1.80
2019-03-11T23:30:40.241Z,1.90
2019-03-11T23:33:08.644Z,1.80
2019-03-11T23:35:37.048Z,1.90
2019-03-11T23:38:05.672Z,1.90
2019-03-11T23:40:34.146Z,1.80
2019-03-11T23:43:02.549Z,1.80
2019-03-11T23:45:30.960Z,1.80
2019-03-11T23:47:59.384Z,1.80
2019-03-11T23:50:27.803Z,1.80
2019-03-11T23:52:56.281Z,1.80
2019-03-11T23:55:24.780Z,1.80
2019-03-11T23:57:53.225Z,1.80
